Time;durP1;ratioP1;P1;durP2;ratioP2;P2;SDS_P1;SDS_P2;PMS_P1;PMS_P2;Temp;Humidity;BMP_temperature;BMP_pressure;BME280_temperature;BME280_humidity;BME280_pressure;Samples;Min_cycle;Max_cycle;Signal;HPM_P1;HPM_P2
2022/07/02 00:00:56;;;;;;;18.53;10.63;;;13.50;99.90;;;;;;5045683;28;20238;-64
2022/07/02 00:03:36;;;;;;;15.47;11.10;;;13.50;99.90;;;;;;5039093;28;20444;-64
2022/07/02 00:06:03;;;;;;;20.53;10.43;;;13.40;99.90;;;;;;5042203;28;20516;-66
2022/07/02 00:08:29;;;;;;;11.07;9.53;;;13.40;99.90;;;;;;5044803;28;20915;-64
2022/07/02 00:10:57;;;;;;;14.17;10.40;;;13.40;99.90;;;;;;5032007;28;20446;-63
2022/07/02 00:13:24;;;;;;;15.10;10.27;;;13.40;99.90;;;;;;5049998;28;20442;-64
2022/07/02 00:15:50;;;;;;;14.87;10.53;;;13.40;99.90;;;;;;5045557;28;20468;-64
2022/07/02 00:18:17;;;;;;;19.17;11.07;;;13.30;99.90;;;;;;5043592;28;20481;-64
2022/07/02 00:20:44;;;;;;;16.60;10.47;;;13.20;99.90;;;;;;5041721;28;20204;-64
2022/07/02 00:23:11;;;;;;;12.50;9.90;;;13.20;99.90;;;;;;5050036;28;20508;-62
2022/07/02 00:25:42;;;;;;;13.20;9.97;;;13.20;99.90;;;;;;5041405;28;20425;-64
2022/07/02 00:28:12;;;;;;;14.23;9.83;;;13.20;99.90;;;;;;5032872;28;20468;-63
2022/07/02 00:30:39;;;;;;;18.73;10.80;;;13.20;99.90;;;;;;5043282;28;20432;-64
2022/07/02 00:33:06;;;;;;;16.23;11.23;;;13.20;99.90;;;;;;5045045;28;20440;-64
2022/07/02 00:35:33;;;;;;;17.80;10.40;;;13.10;99.90;;;;;;5040434;28;20444;-64
2022/07/02 00:38:01;;;;;;;15.93;11.90;;;13.20;99.90;;;;;;5045672;28;20415;-64
2022/07/02 00:40:28;;;;;;;20.23;11.60;;;13.10;99.90;;;;;;5034272;28;20464;-64
2022/07/02 00:42:54;;;;;;;18.87;12.30;;;13.30;99.90;;;;;;5041078;28;20429;-63
2022/07/02 00:45:20;;;;;;;20.17;12.27;;;13.30;99.90;;;;;;5033857;28;20993;-64
2022/07/02 00:47:47;;;;;;;20.70;12.63;;;13.40;99.90;;;;;;5034175;28;20805;-65
2022/07/02 00:50:13;;;;;;;18.10;14.00;;;13.50;99.90;;;;;;5045367;28;20210;-63
2022/07/02 00:52:38;;;;;;;21.13;14.50;;;13.50;99.90;;;;;;5035603;28;20469;-63
2022/07/02 00:55:04;;;;;;;24.10;13.37;;;13.50;99.90;;;;;;5043024;28;20198;-62
2022/07/02 00:57:33;;;;;;;24.07;13.57;;;13.60;99.90;;;;;;5036337;28;20278;-63
2022/07/02 00:59:59;;;;;;;22.43;14.20;;;13.60;99.90;;;;;;5038078;28;21248;-63
2022/07/02 01:02:26;;;;;;;28.63;14.07;;;13.60;99.90;;;;;;5035044;28;20783;-63
2022/07/02 01:04:53;;;;;;;25.83;14.30;;;13.60;99.90;;;;;;5044288;28;20515;-64
2022/07/02 01:07:20;;;;;;;23.03;14.40;;;13.60;99.90;;;;;;5051568;28;20435;-63
2022/07/02 01:12:35;;;;;;;20.33;15.20;;;13.70;99.90;;;;;;5045831;28;20523;-63
2022/07/02 01:15:01;;;;;;;19.87;13.60;;;13.60;99.90;;;;;;5040999;28;20472;-63
2022/07/02 01:17:26;;;;;;;20.63;12.80;;;13.60;99.90;;;;;;5034884;28;20444;-63
2022/07/02 01:19:52;;;;;;;19.30;14.20;;;13.60;99.90;;;;;;5037002;28;20578;-63
2022/07/02 01:22:19;;;;;;;21.03;13.67;;;13.70;99.90;;;;;;5034480;28;20190;-63
2022/07/02 01:24:50;;;;;;;18.03;13.97;;;13.70;99.90;;;;;;5033919;28;20187;-65
2022/07/02 01:27:16;;;;;;;20.20;13.67;;;13.70;99.90;;;;;;5035509;28;20433;-61
2022/07/02 01:29:43;;;;;;;18.30;13.10;;;13.70;99.90;;;;;;5046570;28;20444;-62
2022/07/02 01:32:09;;;;;;;20.30;13.13;;;13.70;99.90;;;;;;5047768;28;20918;-63
2022/07/02 01:34:49;;;;;;;19.10;13.60;;;13.70;99.90;;;;;;5043794;28;20444;-61
2022/07/02 01:37:17;;;;;;;19.47;12.30;;;13.60;99.90;;;;;;5050063;28;20191;-63
2022/07/02 01:39:44;;;;;;;13.47;12.07;;;13.70;99.90;;;;;;5046451;28;20491;-63
2022/07/02 01:42:10;;;;;;;16.57;12.53;;;13.70;99.90;;;;;;5052949;28;20433;-61
2022/07/02 01:44:37;;;;;;;19.50;12.67;;;13.70;99.90;;;;;;5048371;28;20447;-62
2022/07/02 01:47:05;;;;;;;16.00;11.77;;;13.70;99.90;;;;;;5037593;28;20590;-61
2022/07/02 01:49:31;;;;;;;14.80;12.30;;;13.70;99.90;;;;;;5036650;28;20453;-60
2022/07/02 01:51:57;;;;;;;16.57;12.53;;;13.70;99.90;;;;;;5052588;28;20559;-62
2022/07/02 01:54:23;;;;;;;15.63;11.60;;;13.70;99.90;;;;;;5044044;28;20923;-62
2022/07/02 01:56:49;;;;;;;16.60;11.77;;;13.70;99.90;;;;;;5040166;28;20276;-63
2022/07/02 01:59:14;;;;;;;14.60;11.50;;;13.60;99.90;;;;;;5047831;28;20367;-62
2022/07/02 02:01:41;;;;;;;16.50;12.17;;;13.70;99.90;;;;;;5040505;28;20213;-62
2022/07/02 02:04:07;;;;;;;14.33;11.60;;;13.70;99.90;;;;;;5033647;28;20195;-62
2022/07/02 02:06:33;;;;;;;21.30;12.13;;;13.70;99.90;;;;;;5040051;28;20440;-62
2022/07/02 02:08:59;;;;;;;17.80;11.60;;;13.70;99.90;;;;;;5044766;28;20444;-62
2022/07/02 02:11:25;;;;;;;17.17;11.43;;;13.70;99.90;;;;;;5038078;28;20186;-63
2022/07/02 02:13:51;;;;;;;15.43;10.90;;;13.70;99.90;;;;;;5047457;28;20956;-62
2022/07/02 02:16:17;;;;;;;16.43;10.97;;;13.70;99.90;;;;;;5032875;28;20473;-66
2022/07/02 02:18:43;;;;;;;16.07;11.13;;;13.60;99.90;;;;;;5042113;28;20500;-63
2022/07/02 02:21:09;;;;;;;17.63;11.17;;;13.60;99.90;;;;;;5036566;28;20895;-62
2022/07/02 02:23:34;;;;;;;15.20;10.70;;;13.60;1.00;;;;;;5042231;28;20263;-63
2022/07/02 02:26:00;;;;;;;11.10;9.17;;;13.50;1.00;;;;;;5040430;28;20636;-63
2022/07/02 02:28:26;;;;;;;16.83;10.70;;;13.50;41.50;;;;;;5041862;28;20186;-61
2022/07/02 02:30:51;;;;;;;11.83;9.70;;;13.40;1.00;;;;;;5038671;28;20190;-62
2022/07/02 02:33:17;;;;;;;12.80;9.80;;;13.40;6.50;;;;;;5046223;28;20355;-63
2022/07/02 02:35:43;;;;;;;15.80;11.17;;;13.40;99.90;;;;;;5049579;28;20198;-63
2022/07/02 02:38:08;;;;;;;15.13;9.87;;;13.40;1.00;;;;;;5049109;28;20221;-62
2022/07/02 02:40:34;;;;;;;14.13;9.77;;;13.30;49.30;;;;;;5040426;28;20194;-62
2022/07/02 02:43:00;;;;;;;14.50;10.20;;;13.30;1.00;;;;;;5032822;28;20775;-63
2022/07/02 02:45:25;;;;;;;12.23;9.53;;;13.20;1.00;;;;;;5039381;28;20194;-62
2022/07/02 02:47:51;;;;;;;10.67;9.57;;;13.20;1.00;;;;;;5033559;28;20171;-62
2022/07/02 02:50:17;;;;;;;13.87;9.77;;;13.20;1.00;;;;;;5041925;28;20208;-62
2022/07/02 02:52:42;;;;;;;13.10;9.60;;;13.10;1.00;;;;;;5031888;28;20206;-62
2022/07/02 02:55:08;;;;;;;18.37;10.53;;;13.10;1.00;;;;;;5043567;28;21323;-62
2022/07/02 02:57:34;;;;;;;14.20;9.30;;;13.10;1.00;;;;;;5051756;28;20191;-62
2022/07/02 03:00:00;;;;;;;13.03;9.97;;;13.00;1.00;;;;;;5032295;28;20218;-63
2022/07/02 03:02:25;;;;;;;16.00;10.13;;;13.00;1.00;;;;;;5034952;28;20709;-63
2022/07/02 03:04:51;;;;;;;18.53;10.40;;;13.00;99.90;;;;;;5033163;28;20191;-62
2022/07/02 03:07:16;;;;;;;13.20;9.63;;;13.00;99.90;;;;;;5045177;28;20203;-63
2022/07/02 03:09:42;;;;;;;17.50;10.37;;;13.00;1.00;;;;;;5047539;28;20739;-62
2022/07/02 03:12:08;;;;;;;12.47;10.37;;;13.10;1.00;;;;;;5051896;28;20205;-63
2022/07/02 03:14:34;;;;;;;16.27;10.23;;;13.00;1.00;;;;;;5044367;28;20522;-63
2022/07/02 03:16:59;;;;;;;13.13;10.50;;;13.10;1.00;;;;;;5041663;28;20492;-63
2022/07/02 03:19:25;;;;;;;12.13;10.13;;;13.10;99.90;;;;;;5046647;28;20206;-60
2022/07/02 03:21:50;;;;;;;15.63;10.00;;;13.10;99.90;;;;;;5040728;28;20256;-62
2022/07/02 03:24:16;;;;;;;12.70;10.13;;;13.20;1.00;;;;;;5039719;28;20198;-62
2022/07/02 03:26:42;;;;;;;15.03;10.97;;;13.20;1.00;;;;;;5050427;28;20244;-62
2022/07/02 03:29:07;;;;;;;13.03;10.97;;;13.20;99.90;;;;;;5050142;28;20197;-62
2022/07/02 03:31:33;;;;;;;12.80;9.60;;;13.30;99.90;;;;;;5051350;28;20783;-62
2022/07/02 03:33:58;;;;;;;14.57;10.37;;;13.20;51.70;;;;;;5049211;28;20202;-62
2022/07/02 03:36:24;;;;;;;19.40;10.37;;;13.20;2.80;;;;;;5047408;28;20652;-62
2022/07/02 03:38:50;;;;;;;17.47;9.97;;;13.30;1.00;;;;;;5039196;28;20894;-63
2022/07/02 03:41:15;;;;;;;14.40;9.37;;;13.30;1.00;;;;;;5046002;28;20194;-62
2022/07/02 03:43:42;;;;;;;10.60;8.57;;;13.30;1.00;;;;;;5050322;28;20276;-60
2022/07/02 03:46:07;;;;;;;12.60;9.40;;;13.30;1.00;;;;;;5050049;28;20183;-66
2022/07/02 03:48:33;;;;;;;11.53;9.10;;;13.20;1.00;;;;;;5052488;28;20455;-62
2022/07/02 03:50:59;;;;;;;12.73;9.43;;;13.20;1.00;;;;;;5037179;28;20257;-62
2022/07/02 03:53:24;;;;;;;17.10;10.20;;;13.20;1.00;;;;;;5036313;28;20214;-62
2022/07/02 03:55:50;;;;;;;11.70;9.83;;;13.20;1.00;;;;;;5035311;28;20234;-60
2022/07/02 03:58:15;;;;;;;14.23;9.80;;;13.40;1.00;;;;;;5034213;28;20637;-64
2022/07/02 04:00:41;;;;;;;22.27;9.03;;;13.40;99.90;;;;;;5031466;28;20263;-62
2022/07/02 04:03:07;;;;;;;17.20;10.37;;;13.40;99.90;;;;;;5031292;28;20227;-61
2022/07/02 04:05:32;;;;;;;11.20;9.33;;;13.50;99.90;;;;;;5037572;28;20191;-62
2022/07/02 04:07:58;;;;;;;11.20;9.67;;;13.60;99.90;;;;;;5030731;28;20194;-61
2022/07/02 04:10:24;;;;;;;12.80;9.80;;;13.70;99.90;;;;;;5035159;28;20221;-63
2022/07/02 04:12:49;;;;;;;10.87;9.70;;;13.70;17.90;;;;;;5038109;28;20230;-62
2022/07/02 04:15:15;;;;;;;12.30;9.27;;;13.80;1.00;;;;;;5035274;28;20197;-62
2022/07/02 04:17:40;;;;;;;10.30;9.30;;;13.90;1.00;;;;;;5030096;28;20248;-65
2022/07/02 04:20:06;;;;;;;12.90;9.30;;;13.90;1.00;;;;;;5036979;28;20273;-61
2022/07/02 04:22:32;;;;;;;11.93;8.83;;;13.90;1.00;;;;;;5038548;28;20175;-62
2022/07/02 04:24:58;;;;;;;12.17;9.30;;;14.00;1.00;;;;;;5043212;28;20492;-61
2022/07/02 04:27:23;;;;;;;17.87;9.00;;;14.10;1.00;;;;;;5041437;28;20186;-61
2022/07/02 04:29:49;;;;;;;10.50;9.03;;;14.20;1.00;;;;;;5047683;28;20194;-62
2022/07/02 04:32:15;;;;;;;12.13;8.90;;;14.30;1.00;;;;;;5044580;28;20648;-62
2022/07/02 04:34:40;;;;;;;10.40;8.90;;;14.30;1.00;;;;;;5030490;28;20179;-61
2022/07/02 04:37:07;;;;;;;13.13;9.20;;;14.40;1.00;;;;;;5039011;28;20190;-62
2022/07/02 04:39:32;;;;;;;15.70;8.30;;;14.50;99.90;;;;;;5048701;28;20955;-61
2022/07/02 04:41:58;;;;;;;12.20;8.57;;;14.60;99.90;;;;;;5042757;28;20441;-61
2022/07/02 04:44:24;;;;;;;9.97;8.80;;;14.70;99.90;;;;;;5030327;28;20186;-59
2022/07/02 04:46:50;;;;;;;11.07;8.47;;;14.90;99.90;;;;;;5035654;28;20206;-61
2022/07/02 04:49:16;;;;;;;10.23;8.30;;;15.00;99.90;;;;;;5030080;28;20472;-61
2022/07/02 04:51:42;;;;;;;13.90;8.23;;;15.10;99.90;;;;;;5030253;28;20265;-62
2022/07/02 04:54:07;;;;;;;8.50;7.57;;;15.20;99.90;;;;;;5030423;28;20202;-62
2022/07/02 04:56:33;;;;;;;12.60;7.63;;;15.30;99.90;;;;;;5030274;28;20237;-62
2022/07/02 04:58:59;;;;;;;10.00;8.27;;;15.40;99.90;;;;;;5033927;28;20661;-61
2022/07/02 05:01:25;;;;;;;7.90;7.20;;;15.50;99.90;;;;;;5036600;28;20421;-67
2022/07/02 05:03:51;;;;;;;11.13;8.20;;;15.70;99.90;;;;;;5048762;28;20174;-62
2022/07/02 05:06:21;;;;;;;6.93;6.30;;;15.80;99.90;;;;;;5047800;28;20449;-62
2022/07/02 05:08:52;;;;;;;8.07;7.20;;;15.80;99.90;;;;;;5050205;28;20405;-62
2022/07/02 05:11:19;;;;;;;10.00;6.90;;;15.80;99.90;;;;;;5048938;28;20444;-62
2022/07/02 05:13:46;;;;;;;7.57;6.83;;;15.90;99.90;;;;;;5049781;28;20461;-62
2022/07/02 05:16:12;;;;;;;10.57;7.53;;;16.00;99.90;;;;;;5047486;28;20452;-62
2022/07/02 05:18:37;;;;;;;8.53;6.07;;;16.10;99.90;;;;;;5049543;28;20468;-62
2022/07/02 05:21:03;;;;;;;6.40;5.80;;;16.10;99.90;;;;;;5040566;28;20645;-62
2022/07/02 05:23:29;;;;;;;8.17;6.57;;;16.30;99.90;;;;;;5050071;28;20228;-62
2022/07/02 05:25:55;;;;;;;14.37;6.67;;;16.30;99.90;;;;;;5048896;28;20906;-62
2022/07/02 05:28:20;;;;;;;8.47;6.70;;;16.40;99.90;;;;;;5048343;28;20518;-62
2022/07/02 05:30:46;;;;;;;9.13;6.03;;;16.60;99.90;;;;;;5053061;28;20201;-62
2022/07/02 05:33:12;;;;;;;11.30;6.13;;;16.70;99.90;;;;;;5051676;28;20194;-62
2022/07/02 05:35:37;;;;;;;11.80;6.40;;;16.80;99.90;;;;;;5052616;28;20658;-62
2022/07/02 05:38:03;;;;;;;8.13;5.80;;;16.90;99.90;;;;;;5053319;28;20185;-62
2022/07/02 05:40:29;;;;;;;7.33;5.83;;;17.00;99.90;;;;;;5051671;28;20193;-62
2022/07/02 05:42:54;;;;;;;8.33;6.13;;;17.10;99.90;;;;;;5052697;28;20182;-61
2022/07/02 05:45:20;;;;;;;8.13;5.37;;;17.20;99.90;;;;;;5051385;28;20265;-61
2022/07/02 05:47:46;;;;;;;6.97;5.50;;;17.40;99.90;;;;;;5049838;28;20719;-62
2022/07/02 05:50:11;;;;;;;8.73;5.70;;;17.60;99.90;;;;;;5052806;28;20189;-58
2022/07/02 05:52:37;;;;;;;6.30;5.10;;;17.60;99.90;;;;;;5053107;28;20190;-61
2022/07/02 05:55:03;;;;;;;12.10;5.57;;;17.70;99.90;;;;;;5052436;28;20190;-61
2022/07/02 05:57:29;;;;;;;9.00;5.27;;;17.80;99.90;;;;;;5050895;28;20285;-62
2022/07/02 05:59:56;;;;;;;5.73;4.40;;;17.90;99.90;;;;;;5052752;28;20468;-62
2022/07/02 06:02:22;;;;;;;6.93;4.90;;;18.00;99.90;;;;;;5051759;28;20240;-62
2022/07/02 06:04:48;;;;;;;6.87;4.83;;;18.10;99.90;;;;;;5049388;28;20393;-62
2022/07/02 06:09:58;;;;;;;8.00;4.40;;;18.50;99.90;;;;;;5052352;28;20236;-62
2022/07/02 06:12:24;;;;;;;6.50;4.20;;;18.60;99.90;;;;;;5036754;28;20861;-62
2022/07/02 06:14:49;;;;;;;11.30;4.53;;;18.80;99.90;;;;;;5031590;28;20430;-62
2022/07/02 06:17:15;;;;;;;5.43;3.53;;;19.00;99.90;;;;;;5046961;28;20201;-62
2022/07/02 06:19:42;;;;;;;6.10;3.30;;;19.20;99.90;;;;;;5052696;28;20927;-62
2022/07/02 06:22:08;;;;;;;5.80;3.60;;;19.30;99.90;;;;;;5051382;28;20952;-62
2022/07/02 06:24:34;;;;;;;10.97;3.73;;;19.50;99.90;;;;;;5050273;28;20523;-62
2022/07/02 06:26:59;;;;;;;4.50;3.40;;;19.80;99.90;;;;;;5051418;28;20210;-62
2022/07/02 06:29:25;;;;;;;6.37;3.40;;;20.10;99.90;;;;;;5039578;28;20264;-62
2022/07/02 06:31:51;;;;;;;6.70;3.30;;;20.10;99.90;;;;;;5035825;28;20190;-62
2022/07/02 06:34:17;;;;;;;7.63;3.47;;;20.20;99.90;;;;;;5051996;28;20210;-61
2022/07/02 06:36:43;;;;;;;4.00;2.97;;;20.40;99.90;;;;;;5048366;28;20277;-61
2022/07/02 06:39:09;;;;;;;3.93;2.70;;;20.50;99.90;;;;;;5031884;28;20215;-62
2022/07/02 06:44:19;;;;;;;8.30;2.67;;;20.80;99.90;;;;;;5051898;28;20268;-62
2022/07/02 06:46:44;;;;;;;4.10;2.70;;;21.10;99.90;;;;;;5039954;28;20519;-62
2022/07/02 06:49:10;;;;;;;3.17;2.50;;;21.20;99.90;;;;;;5048893;28;20186;-62
2022/07/02 06:51:35;;;;;;;4.97;2.40;;;21.40;99.90;;;;;;5041655;28;20858;-62
2022/07/02 06:54:01;;;;;;;4.73;2.23;;;21.50;99.90;;;;;;5036691;28;20683;-61
2022/07/02 06:56:28;;;;;;;4.60;2.17;;;21.60;99.90;;;;;;5049982;28;20704;-61
2022/07/02 06:58:55;;;;;;;4.60;2.43;;;21.60;99.90;;;;;;5052143;28;20209;-61
2022/07/02 07:01:21;;;;;;;4.30;1.93;;;21.40;99.90;;;;;;5050383;28;20469;-61
2022/07/02 07:03:46;;;;;;;2.40;2.07;;;21.30;99.90;;;;;;5051632;28;20425;-61
2022/07/02 07:06:12;;;;;;;4.93;2.33;;;21.50;99.90;;;;;;5049440;28;20253;-61
2022/07/02 07:08:37;;;;;;;14.97;2.40;;;21.80;99.90;;;;;;5043966;28;20190;-61
2022/07/02 07:11:03;;;;;;;13.20;8.50;;;22.00;99.90;;;;;;5041800;28;20671;-61
2022/07/02 07:13:29;;;;;;;9.83;2.70;;;22.20;99.90;;;;;;5051286;28;20186;-60
2022/07/02 07:15:54;;;;;;;6.10;2.60;;;22.20;99.90;;;;;;5050700;28;20200;-61
2022/07/02 07:18:20;;;;;;;3.47;2.40;;;22.20;99.90;;;;;;5048924;28;20768;-61
2022/07/02 07:20:47;;;;;;;7.67;2.27;;;22.40;99.90;;;;;;5051145;28;20189;-61
2022/07/02 07:23:13;;;;;;;3.20;1.90;;;22.70;99.90;;;;;;5049457;28;20186;-61
2022/07/02 07:25:39;;;;;;;3.27;2.20;;;22.70;99.90;;;;;;5047003;28;20890;-61
2022/07/02 07:28:04;;;;;;;2.90;1.97;;;22.70;99.90;;;;;;5033569;28;20512;-61
2022/07/02 07:30:30;;;;;;;11.40;2.07;;;22.60;99.90;;;;;;5031574;28;20171;-61
2022/07/02 07:32:56;;;;;;;7.43;2.30;;;22.30;99.90;;;;;;5049333;28;20190;-61
2022/07/02 07:35:22;;;;;;;3.90;2.33;;;22.30;99.90;;;;;;5049940;28;20273;-61
2022/07/02 07:37:59;;;;;;;10.03;2.47;;;22.50;99.90;;;;;;5050281;28;20531;-62
2022/07/02 07:40:25;;;;;;;5.43;1.80;;;22.80;99.90;;;;;;5050841;28;20201;-53
2022/07/02 07:42:51;;;;;;;6.30;2.57;;;23.30;99.90;;;;;;5038685;28;20437;-52
2022/07/02 07:45:17;;;;;;;4.00;2.00;;;23.60;99.90;;;;;;5031264;28;20773;-52
2022/07/02 07:47:42;;;;;;;3.47;2.23;;;23.70;99.90;;;;;;5040911;28;20209;-53
2022/07/02 07:50:08;;;;;;;5.03;2.30;;;23.60;99.90;;;;;;5049021;28;20204;-52
2022/07/02 07:52:34;;;;;;;4.80;1.73;;;23.30;99.90;;;;;;5049633;28;20240;-53
2022/07/02 07:55:00;;;;;;;3.20;1.90;;;23.30;99.90;;;;;;5049111;28;20481;-52
2022/07/02 07:57:25;;;;;;;3.20;1.80;;;23.20;99.90;;;;;;5050214;28;20230;-52
2022/07/02 07:59:51;;;;;;;4.87;1.77;;;23.30;99.90;;;;;;5051074;28;20224;-53
2022/07/02 08:02:17;;;;;;;3.90;1.70;;;23.60;99.90;;;;;;5051446;28;20159;-53
2022/07/02 08:04:42;;;;;;;2.30;1.40;;;23.80;99.90;;;;;;5051054;28;20299;-53
2022/07/02 08:07:08;;;;;;;2.67;1.50;;;23.80;99.90;;;;;;5050416;28;20198;-52
2022/07/02 08:09:33;;;;;;;2.83;1.70;;;24.00;99.90;;;;;;5050663;28;20612;-53
2022/07/02 08:11:59;;;;;;;4.63;1.90;;;24.00;99.90;;;;;;5050795;28;20198;-53
2022/07/02 08:14:25;;;;;;;3.53;1.90;;;23.90;99.90;;;;;;5050693;28;20220;-52
2022/07/02 08:16:50;;;;;;;7.83;1.80;;;23.80;99.90;;;;;;5049327;28;20198;-53
2022/07/02 08:19:16;;;;;;;6.23;1.90;;;23.80;99.90;;;;;;5050438;28;20209;-53
2022/07/02 08:21:42;;;;;;;5.60;1.90;;;24.20;99.90;;;;;;5050448;28;20570;-53
2022/07/02 08:24:08;;;;;;;3.73;1.83;;;24.60;99.90;;;;;;5050778;28;20300;-53
2022/07/02 08:26:33;;;;;;;2.40;1.60;;;24.70;99.90;;;;;;5050658;28;20181;-53
2022/07/02 08:28:59;;;;;;;3.67;1.73;;;24.40;99.90;;;;;;5050783;28;20440;-53
2022/07/02 08:31:25;;;;;;;6.27;1.60;;;24.30;99.90;;;;;;5051128;28;20200;-51
2022/07/02 08:33:51;;;;;;;3.47;1.50;;;24.50;99.90;;;;;;5050157;28;20181;-52
2022/07/02 08:36:16;;;;;;;4.00;1.60;;;24.60;99.90;;;;;;5050485;28;20673;-53
2022/07/02 08:38:42;;;;;;;5.33;1.60;;;24.70;99.90;;;;;;5033390;28;20525;-51
2022/07/02 08:41:12;;;;;;;2.20;1.60;;;24.50;99.90;;;;;;5044096;28;20261;-54
2022/07/02 08:43:40;;;;;;;4.23;1.77;;;24.40;99.90;;;;;;5050224;28;20188;-52
2022/07/02 08:46:06;;;;;;;3.30;1.60;;;24.60;99.90;;;;;;5050361;28;20458;-51
2022/07/02 08:48:33;;;;;;;4.57;1.57;;;24.90;99.90;;;;;;5050429;28;20507;-51
2022/07/02 08:51:00;;;;;;;3.57;1.90;;;25.10;99.90;;;;;;5050355;28;20448;-52
2022/07/02 08:53:25;;;;;;;2.23;1.87;;;25.60;99.90;;;;;;5049973;28;20433;-51
2022/07/02 08:55:53;;;;;;;4.13;1.83;;;25.50;99.90;;;;;;5049996;28;20479;-56
2022/07/02 08:58:19;;;;;;;3.60;1.60;;;25.60;99.90;;;;;;5050010;28;20525;-51
2022/07/02 09:00:46;;;;;;;1.93;1.37;;;25.40;99.90;;;;;;5050253;28;20454;-51
2022/07/02 09:03:13;;;;;;;2.93;1.40;;;24.60;99.90;;;;;;5051442;28;20432;-51
2022/07/02 09:05:41;;;;;;;5.00;1.33;;;24.30;99.90;;;;;;5054368;28;20778;-52
2022/07/02 09:08:07;;;;;;;3.63;1.70;;;24.50;99.90;;;;;;5053915;28;20413;-52
2022/07/02 09:10:33;;;;;;;7.80;1.60;;;25.00;99.90;;;;;;5053225;28;20490;-52
2022/07/02 09:13:00;;;;;;;6.97;1.57;;;25.30;99.90;;;;;;5054942;28;20232;-53
2022/07/02 09:15:26;;;;;;;5.00;1.63;;;25.80;99.90;;;;;;5052662;28;20478;-52
2022/07/02 09:17:52;;;;;;;4.90;1.67;;;26.20;99.90;;;;;;5053962;28;20887;-52
2022/07/02 09:20:18;;;;;;;7.10;1.40;;;26.40;99.90;;;;;;5053808;28;20202;-52
2022/07/02 09:22:47;;;;;;;4.40;2.00;;;26.30;99.90;;;;;;5054792;28;20190;-52
2022/07/02 09:25:18;;;;;;;2.40;1.40;;;26.30;99.90;;;;;;5053501;28;20428;-52
2022/07/02 09:27:45;;;;;;;4.17;1.30;;;26.10;99.90;;;;;;5054214;28;20424;-52
2022/07/02 09:30:15;;;;;;;1.53;1.23;;;25.90;99.90;;;;;;5053949;28;20412;-52
2022/07/02 09:32:45;;;;;;;3.13;1.73;;;25.70;99.90;;;;;;5053170;28;20468;-52
2022/07/02 09:35:19;;;;;;;2.70;1.57;;;26.10;99.90;;;;;;5053378;28;20520;-53
2022/07/02 09:37:46;;;;;;;1.67;1.03;;;26.90;99.90;;;;;;5053269;28;20420;-52
2022/07/02 09:40:12;;;;;;;2.50;1.50;;;27.20;99.90;;;;;;5053235;28;20537;-52
2022/07/02 09:42:38;;;;;;;4.00;1.37;;;27.00;99.90;;;;;;5053724;28;20420;-52
2022/07/02 09:45:06;;;;;;;3.00;1.33;;;26.70;99.90;;;;;;5053948;28;20554;-55
2022/07/02 09:47:36;;;;;;;7.13;1.60;;;26.70;99.90;;;;;;5053085;28;20209;-55
2022/07/02 09:50:12;;;;;;;4.23;1.70;;;27.00;99.90;;;;;;5053109;28;20432;-54
2022/07/02 09:52:48;;;;;;;3.47;1.43;;;27.30;99.90;;;;;;5052955;28;20419;-55
2022/07/02 09:55:23;;;;;;;5.33;1.30;;;27.50;99.90;;;;;;5045599;28;20543;-55
2022/07/02 09:57:56;;;;;;;4.87;1.50;;;27.20;99.90;;;;;;5045416;28;20444;-55
2022/07/02 10:00:24;;;;;;;2.40;1.53;;;26.90;99.90;;;;;;5053104;28;20445;-55
2022/07/02 10:02:51;;;;;;;4.73;1.43;;;27.40;99.90;;;;;;5055876;28;20895;-54
2022/07/02 10:05:25;;;;;;;4.20;1.53;;;27.70;99.90;;;;;;5052965;28;20796;-56
2022/07/02 10:07:56;;;;;;;2.53;1.50;;;27.80;99.90;;;;;;5052479;28;20455;-55
2022/07/02 10:10:31;;;;;;;2.23;1.13;;;28.10;99.90;;;;;;5052805;28;20486;-55
2022/07/02 10:12:57;;;;;;;4.93;1.40;;;28.60;99.90;;;;;;5052634;28;20424;-55
2022/07/02 10:15:24;;;;;;;3.13;1.03;;;29.10;99.90;;;;;;5051481;28;20479;-56
2022/07/02 10:17:56;;;;;;;5.20;1.50;;;28.70;99.90;;;;;;5052786;28;20738;-55
2022/07/02 10:20:23;;;;;;;6.03;1.10;;;27.30;99.90;;;;;;5052374;28;20471;-54
2022/07/02 10:22:49;;;;;;;1.10;1.00;;;26.50;99.90;;;;;;5052381;28;20944;-55
2022/07/02 10:25:17;;;;;;;2.17;1.20;;;26.60;99.90;;;;;;5053040;28;20440;-55
2022/07/02 10:27:44;;;;;;;2.33;1.30;;;26.60;99.90;;;;;;5052912;28;20419;-54
2022/07/02 10:30:11;;;;;;;2.60;1.50;;;26.10;99.90;;;;;;5052655;28;20459;-55
2022/07/02 10:32:50;;;;;;;1.87;1.40;;;25.60;99.90;;;;;;5052199;28;20433;-55
2022/07/02 10:35:16;;;;;;;2.47;1.30;;;25.70;99.90;;;;;;5052621;28;20424;-55
2022/07/02 10:37:43;;;;;;;1.43;1.00;;;26.10;99.90;;;;;;5052472;28;20406;-55
2022/07/02 10:40:09;;;;;;;2.50;1.50;;;26.80;99.90;;;;;;5052832;28;20977;-55
2022/07/02 10:42:45;;;;;;;2.40;1.30;;;27.30;99.90;;;;;;5050694;28;20432;-54
2022/07/02 10:45:14;;;;;;;3.00;1.20;;;27.30;99.90;;;;;;5051935;28;20420;-55
2022/07/02 10:48:02;;;;;;;2.30;1.00;;;27.90;99.90;;;;;;5052210;28;20405;-58
2022/07/02 10:50:38;;;;;;;2.90;1.33;;;28.50;99.90;;;;;;5051784;28;20825;-55
2022/07/02 10:53:20;;;;;;;4.53;1.50;;;27.90;99.90;;;;;;5051976;28;20490;-55
2022/07/02 10:55:58;;;;;;;2.70;1.33;;;27.80;99.90;;;;;;5051383;28;20479;-55
2022/07/02 10:58:29;;;;;;;2.33;1.20;;;27.30;99.90;;;;;;5051754;28;20424;-55
2022/07/02 11:00:55;;;;;;;3.00;1.07;;;27.20;99.90;;;;;;5052034;28;20429;-55
2022/07/02 11:03:26;;;;;;;2.23;1.10;;;27.40;99.90;;;;;;5051944;28;20497;-56
2022/07/02 11:05:55;;;;;;;2.07;0.97;;;27.60;99.90;;;;;;5051145;28;20456;-55
2022/07/02 11:08:43;;;;;;;2.70;1.20;;;28.00;99.90;;;;;;5046635;28;20437;-56
2022/07/02 11:11:10;;;;;;;2.80;1.20;;;28.30;99.90;;;;;;5031494;28;20497;-55
2022/07/02 11:14:00;;;;;;;1.93;1.00;;;28.10;99.90;;;;;;5031719;28;20410;-55
2022/07/02 11:16:26;;;;;;;2.07;1.47;;;28.40;99.90;;;;;;5031443;28;20440;-55
2022/07/02 11:18:54;;;;;;;2.50;1.20;;;29.20;99.90;;;;;;5044101;28;20457;-56
2022/07/02 11:21:21;;;;;;;5.13;1.23;;;29.20;99.90;;;;;;5051336;28;20887;-55
2022/07/02 11:23:48;;;;;;;2.10;1.30;;;28.10;99.90;;;;;;5051380;28;20773;-55
2022/07/02 11:26:25;;;;;;;1.30;1.10;;;27.40;99.90;;;;;;5050925;28;20452;-54
2022/07/02 11:28:51;;;;;;;1.57;1.00;;;27.80;99.90;;;;;;5031399;28;20425;-55
2022/07/02 11:31:19;;;;;;;2.90;1.30;;;28.50;99.90;;;;;;5031525;28;20762;-54
2022/07/02 11:33:47;;;;;;;10.97;1.40;;;29.20;99.90;;;;;;5040768;28;20444;-55
2022/07/02 11:36:13;;;;;;;4.57;1.10;;;29.10;99.90;;;;;;5050881;28;20437;-55
2022/07/02 11:38:40;;;;;;;1.83;1.33;;;28.90;99.90;;;;;;5049644;28;20492;-55
2022/07/02 11:41:20;;;;;;;1.37;1.27;;;28.60;99.90;;;;;;5050793;28;20637;-55
2022/07/02 11:43:53;;;;;;;1.57;1.10;;;28.80;99.90;;;;;;5050503;28;20431;-55
2022/07/02 11:46:22;;;;;;;2.00;1.17;;;28.60;99.90;;;;;;5050790;28;20500;-55
2022/07/02 11:48:49;;;;;;;1.33;1.13;;;27.90;99.90;;;;;;5050958;28;20429;-56
2022/07/02 11:51:15;;;;;;;1.63;1.10;;;27.70;99.90;;;;;;5050767;28;20508;-56
2022/07/02 11:53:41;;;;;;;2.17;1.20;;;28.10;99.90;;;;;;5050173;28;20930;-55
2022/07/02 11:56:13;;;;;;;1.07;0.90;;;28.90;99.90;;;;;;5050451;28;20488;-55
2022/07/02 11:58:40;;;;;;;1.47;1.00;;;29.80;99.90;;;;;;5050553;28;20467;-55
2022/07/02 12:01:34;;;;;;;2.77;1.30;;;30.60;99.90;;;;;;5050651;28;20890;-55
2022/07/02 12:04:02;;;;;;;3.10;1.10;;;30.90;99.90;;;;;;5050275;28;20411;-55
2022/07/02 12:06:30;;;;;;;4.43;1.30;;;30.40;99.90;;;;;;5050503;28;20398;-55
2022/07/02 12:08:57;;;;;;;2.17;1.40;;;29.40;99.90;;;;;;5050204;28;20444;-55
2022/07/02 12:11:24;;;;;;;3.40;1.30;;;28.40;99.90;;;;;;5050432;28;20873;-55
2022/07/02 12:13:51;;;;;;;1.53;0.93;;;28.00;99.90;;;;;;5050590;28;20486;-55
2022/07/02 12:16:20;;;;;;;1.60;1.13;;;28.40;99.90;;;;;;5050352;28;20439;-55
2022/07/02 12:19:02;;;;;;;1.80;1.00;;;28.50;99.90;;;;;;5050166;28;20476;-55
2022/07/02 12:21:43;;;;;;;5.23;1.30;;;28.30;99.90;;;;;;5049110;28;20942;-56
2022/07/02 12:24:27;;;;;;;3.47;1.30;;;28.10;99.90;;;;;;5036330;28;20446;-55
2022/07/02 12:26:57;;;;;;;1.90;1.10;;;27.50;99.90;;;;;;5030645;28;20452;-55
2022/07/02 12:32:14;;;;;;;4.60;1.10;;;26.00;99.90;;;;;;5036396;28;20472;-55
2022/07/02 12:34:47;;;;;;;1.97;1.20;;;25.80;99.90;;;;;;5030523;28;20394;-55
2022/07/02 12:37:37;;;;;;;6.60;1.03;;;26.70;99.90;;;;;;5030418;28;20437;-55
2022/07/02 12:40:09;;;;;;;3.50;1.40;;;27.70;99.90;;;;;;5053155;28;20482;-55
2022/07/02 12:42:51;;;;;;;4.30;1.23;;;27.70;99.90;;;;;;5060492;28;20914;-56
2022/07/02 12:45:34;;;;;;;4.13;1.40;;;27.10;99.90;;;;;;5053734;28;20419;-54
2022/07/02 12:48:00;;;;;;;1.40;1.30;;;26.30;99.90;;;;;;5051296;28;20871;-55
2022/07/02 12:50:29;;;;;;;6.90;2.00;;;25.80;99.90;;;;;;5053105;28;20447;-55
2022/07/02 12:52:56;;;;;;;1.73;1.37;;;25.60;99.90;;;;;;5052355;28;20980;-55